Time;durP1;ratioP1;P1;durP2;ratioP2;P2;SDS_P1;SDS_P2;PMS_P1;PMS_P2;Temp;Humidity;BMP_temperature;BMP_pressure;BME280_temperature;BME280_humidity;BME280_pressure;Samples;Min_cycle;Max_cycle;Signal;HPM_P1;HPM_P2
2022/10/27 00:00:34;;;;;;;49.50;19.23;;;12.80;99.90;;;;;;5015031;28;20045;-65
2022/10/27 00:03:00;;;;;;;68.22;20.42;;;12.80;99.90;;;;;;5019560;28;20034;-65
2022/10/27 00:05:26;;;;;;;56.47;20.25;;;12.80;99.90;;;;;;5005898;28;20029;-65
2022/10/27 00:07:53;;;;;;;58.20;19.30;;;12.90;99.90;;;;;;5004377;28;20321;-65
2022/10/27 00:10:22;;;;;;;51.40;19.35;;;12.80;99.90;;;;;;5022037;28;20702;-65
2022/10/27 00:12:50;;;;;;;59.90;21.02;;;12.90;99.90;;;;;;5017325;28;20045;-65
2022/10/27 00:15:16;;;;;;;58.80;18.88;;;13.00;99.90;;;;;;5001613;28;20053;-65
2022/10/27 00:17:42;;;;;;;51.20;19.30;;;13.00;99.90;;;;;;5020779;28;20041;-65
2022/10/27 00:20:08;;;;;;;58.53;19.20;;;13.00;99.90;;;;;;5003966;28;20123;-65
2022/10/27 00:22:34;;;;;;;50.75;18.92;;;13.00;99.90;;;;;;5000421;28;20034;-65
2022/10/27 00:25:00;;;;;;;53.22;19.50;;;13.10;99.90;;;;;;5021197;28;20330;-65
2022/10/27 00:27:27;;;;;;;50.70;17.98;;;13.10;99.90;;;;;;5000349;28;20052;-65
2022/10/27 00:29:53;;;;;;;69.97;20.38;;;13.00;99.90;;;;;;5033807;28;20037;-65
2022/10/27 00:32:18;;;;;;;55.22;19.92;;;13.10;99.90;;;;;;5001119;28;20044;-65
2022/10/27 00:34:44;;;;;;;65.82;21.73;;;13.10;99.90;;;;;;5004164;28;20079;-65
2022/10/27 00:37:09;;;;;;;54.72;21.25;;;13.10;99.90;;;;;;5017725;28;20037;-65
2022/10/27 00:39:35;;;;;;;59.38;22.33;;;13.10;99.90;;;;;;5004544;28;20045;-65
2022/10/27 00:42:13;;;;;;;65.70;21.35;;;13.00;99.90;;;;;;5033035;28;20152;-65
2022/10/27 00:44:44;;;;;;;52.85;21.25;;;13.00;99.90;;;;;;5004891;28;20070;-65
2022/10/27 00:47:16;;;;;;;57.47;20.88;;;13.10;99.90;;;;;;4999881;28;20041;-65
2022/10/27 00:50:06;;;;;;;59.25;20.52;;;13.00;99.90;;;;;;5021073;28;20052;-65
2022/10/27 00:52:43;;;;;;;68.45;21.20;;;13.00;99.90;;;;;;5014333;28;20056;-65
2022/10/27 00:55:17;;;;;;;50.80;20.80;;;12.90;99.90;;;;;;5002714;28;20057;-65
2022/10/27 00:57:44;;;;;;;58.20;21.05;;;12.90;99.90;;;;;;5018945;28;20080;-65
2022/10/27 01:00:10;;;;;;;62.17;21.63;;;12.80;99.90;;;;;;5004901;28;20049;-65
2022/10/27 01:02:37;;;;;;;57.80;19.38;;;12.90;99.90;;;;;;5016834;28;20037;-65
2022/10/27 01:05:13;;;;;;;48.72;19.17;;;12.80;99.90;;;;;;5018535;28;20045;-65
2022/10/27 01:07:41;;;;;;;51.60;20.20;;;12.80;99.90;;;;;;5018754;28;20064;-65
2022/10/27 01:10:07;;;;;;;60.45;20.45;;;12.80;99.90;;;;;;5022861;28;20381;-65
2022/10/27 01:12:32;;;;;;;61.33;20.25;;;12.80;99.90;;;;;;5018147;28;20168;-65
2022/10/27 01:14:58;;;;;;;66.63;21.58;;;12.80;99.90;;;;;;5021131;28;20116;-65
2022/10/27 01:17:46;;;;;;;59.85;20.85;;;12.80;99.90;;;;;;5000645;28;20038;-64
2022/10/27 01:20:35;;;;;;;49.67;18.95;;;12.70;99.90;;;;;;5004976;28;20565;-65
2022/10/27 01:23:32;;;;;;;53.97;19.13;;;12.80;99.90;;;;;;5016707;28;20037;-65
2022/10/27 01:26:13;;;;;;;50.63;19.85;;;12.80;99.90;;;;;;5019261;28;20132;-65
2022/10/27 01:29:00;;;;;;;59.65;20.35;;;12.80;99.90;;;;;;5017233;28;20449;-65
2022/10/27 07:47:45;;;;;;;82.88;28.02;;;13.00;99.90;;;;;;4236916;26;20043;-65
2022/10/27 08:20:10;;;;;;;93.45;28.42;;;13.80;99.90;;;;;;2447771;26;20060;-66
2022/10/27 08:27:29;;;;;;;85.93;26.20;;;13.90;99.90;;;;;;4973636;28;20093;-65
2022/10/27 08:40:19;;;;;;;79.30;25.33;;;14.00;99.90;;;;;;5087448;28;20052;-65
2022/10/27 08:43:42;;;;;;;70.93;24.60;;;14.00;99.90;;;;;;5076066;28;20071;-66
2022/10/27 08:46:51;;;;;;;65.47;22.83;;;14.10;99.90;;;;;;5080313;28;20051;-66
2022/10/27 08:49:53;;;;;;;76.07;24.02;;;14.20;99.90;;;;;;5066381;28;20095;-66
2022/10/27 08:52:32;;;;;;;67.22;22.88;;;14.30;99.90;;;;;;5055953;28;20175;-66
2022/10/27 08:55:47;;;;;;;73.70;24.02;;;14.40;99.90;;;;;;5053754;28;20055;-66
2022/10/27 08:58:51;;;;;;;73.43;23.42;;;14.50;99.90;;;;;;5064616;28;20048;-66
2022/10/27 09:01:51;;;;;;;60.88;22.40;;;14.70;99.90;;;;;;5074762;28;20509;-66
2022/10/27 09:04:46;;;;;;;73.18;22.52;;;14.70;99.90;;;;;;5060138;28;20398;-66
2022/10/27 09:07:44;;;;;;;71.22;21.55;;;14.90;99.90;;;;;;5045102;28;20040;-66
2022/10/27 09:10:52;;;;;;;74.95;21.73;;;15.00;99.90;;;;;;5076338;28;20048;-66
2022/10/27 09:14:17;;;;;;;57.28;20.92;;;15.10;99.90;;;;;;5046120;28;20131;-66
2022/10/27 09:17:27;;;;;;;56.30;20.00;;;15.30;99.90;;;;;;5051100;28;20087;-66
2022/10/27 09:20:24;;;;;;;57.35;19.27;;;15.30;99.90;;;;;;5068063;28;20036;-66
2022/10/27 09:22:51;;;;;;;66.85;18.95;;;15.40;99.90;;;;;;5050443;28;20040;-66
2022/10/27 09:25:21;;;;;;;56.60;17.75;;;15.50;99.90;;;;;;5051348;28;20402;-66
2022/10/27 09:27:51;;;;;;;51.08;17.20;;;15.60;99.90;;;;;;5068389;28;20445;-66
2022/10/27 09:30:17;;;;;;;56.13;16.65;;;15.70;99.90;;;;;;5068983;28;20036;-66
2022/10/27 09:32:49;;;;;;;44.47;15.98;;;15.70;99.90;;;;;;5052021;28;20033;-66
2022/10/27 09:35:36;;;;;;;48.30;15.57;;;15.80;99.90;;;;;;5048700;28;20037;-66
2022/10/27 09:38:01;;;;;;;48.13;15.57;;;15.80;99.90;;;;;;5080927;28;20063;-66
2022/10/27 09:40:31;;;;;;;37.88;15.48;;;15.90;99.90;;;;;;5072289;28;20463;-66
2022/10/27 09:42:59;;;;;;;43.13;14.52;;;16.20;99.90;;;;;;5067305;28;20514;-66
2022/10/27 09:45:27;;;;;;;42.22;14.32;;;16.10;99.90;;;;;;5038550;28;20040;-66
2022/10/27 09:48:02;;;;;;;42.10;14.05;;;16.30;99.90;;;;;;5068824;28;20028;-66
2022/10/27 09:50:39;;;;;;;40.65;13.63;;;16.30;99.90;;;;;;5063765;28;20040;-66
2022/10/27 09:53:36;;;;;;;36.95;12.90;;;16.50;99.90;;;;;;5074034;28;20105;-66
2022/10/27 09:56:03;;;;;;;40.22;12.90;;;16.60;99.90;;;;;;5072223;28;20121;-71
2022/10/27 09:58:29;;;;;;;33.15;12.60;;;16.60;99.90;;;;;;5059517;28;20068;-71
2022/10/27 10:00:57;;;;;;;39.70;12.52;;;16.80;99.90;;;;;;5039198;28;20088;-71
2022/10/27 10:03:23;;;;;;;32.10;12.32;;;16.90;99.90;;;;;;5073821;28;20044;-71
2022/10/27 10:06:00;;;;;;;35.35;12.93;;;17.00;99.90;;;;;;5073266;28;20040;-72
2022/10/27 10:08:28;;;;;;;37.00;13.35;;;17.10;99.90;;;;;;5067871;28;20044;-71
2022/10/27 10:11:02;;;;;;;35.55;12.40;;;17.30;99.90;;;;;;5070945;28;20043;-73
2022/10/27 10:13:36;;;;;;;36.58;12.43;;;17.40;99.90;;;;;;5072978;28;20040;-72
2022/10/27 10:16:14;;;;;;;44.90;13.18;;;17.50;99.90;;;;;;5090916;28;20113;-71
2022/10/27 10:18:42;;;;;;;34.47;11.75;;;17.60;99.90;;;;;;5057034;28;20040;-71
2022/10/27 10:21:11;;;;;;;34.08;12.75;;;17.70;99.90;;;;;;5056676;28;20101;-71
2022/10/27 10:23:48;;;;;;;32.22;11.77;;;17.70;99.90;;;;;;5061325;28;20112;-71
2022/10/27 10:26:22;;;;;;;31.98;11.32;;;17.70;99.90;;;;;;5061965;28;20071;-71
2022/10/27 10:28:53;;;;;;;31.75;12.30;;;17.70;99.90;;;;;;5067069;28;20044;-72
2022/10/27 10:31:27;;;;;;;31.08;11.18;;;17.60;99.90;;;;;;5059275;28;20052;-72
2022/10/27 10:34:00;;;;;;;32.92;11.57;;;17.70;99.90;;;;;;5067535;28;20518;-71
2022/10/27 10:36:36;;;;;;;34.63;11.30;;;17.60;99.90;;;;;;5056537;28;20036;-71
2022/10/27 10:39:19;;;;;;;39.92;11.40;;;17.60;99.90;;;;;;5050493;28;20074;-71
2022/10/27 10:42:04;;;;;;;34.85;11.10;;;17.70;99.90;;;;;;5052712;28;20341;-71
2022/10/27 10:44:30;;;;;;;29.35;10.10;;;17.70;99.90;;;;;;5070796;28;20044;-71
2022/10/27 10:46:56;;;;;;;30.08;9.38;;;17.80;99.90;;;;;;5062529;28;20047;-71
2022/10/27 10:49:44;;;;;;;25.35;9.13;;;17.90;99.90;;;;;;5073822;28;20032;-71
2022/10/27 10:52:19;;;;;;;30.90;9.02;;;17.90;99.90;;;;;;5060369;28;20101;-72
2022/10/27 10:54:46;;;;;;;26.33;9.10;;;18.00;99.90;;;;;;5057894;28;20043;-71
2022/10/27 10:57:40;;;;;;;31.75;9.13;;;18.00;99.90;;;;;;5052506;28;20533;-71
2022/10/27 11:00:14;;;;;;;21.52;7.65;;;18.00;99.90;;;;;;5070463;28;20044;-71
2022/10/27 11:02:41;;;;;;;22.45;7.18;;;18.00;99.90;;;;;;5088055;28;20036;-72
2022/10/27 11:05:22;;;;;;;19.33;7.15;;;18.00;99.90;;;;;;5090520;28;20461;-71
2022/10/27 11:07:50;;;;;;;17.83;6.65;;;18.00;99.90;;;;;;5088684;28;20036;-71
2022/10/27 11:10:21;;;;;;;28.10;6.88;;;17.90;99.90;;;;;;5080365;28;20040;-72
2022/10/27 11:13:03;;;;;;;20.50;6.20;;;17.90;99.90;;;;;;5071657;28;20028;-72
2022/10/27 11:15:34;;;;;;;24.15;6.85;;;17.90;99.90;;;;;;5082650;28;20042;-71
2022/10/27 11:18:20;;;;;;;16.38;5.82;;;17.80;99.90;;;;;;5052762;28;20068;-71
2022/10/27 11:20:51;;;;;;;17.50;5.32;;;17.80;99.90;;;;;;5070725;28;20044;-71
2022/10/27 11:23:22;;;;;;;14.50;4.90;;;17.80;99.90;;;;;;5052133;28;20048;-73
2022/10/27 11:25:48;;;;;;;19.38;5.07;;;17.80;99.90;;;;;;5068835;28;20035;-72
2022/10/27 11:28:33;;;;;;;15.48;5.28;;;17.70;99.90;;;;;;5064089;28;20044;-72
2022/10/27 11:31:20;;;;;;;15.30;5.57;;;17.80;99.90;;;;;;5072770;28;20044;-72
2022/10/27 11:34:04;;;;;;;17.40;5.53;;;17.90;99.90;;;;;;5049895;28;20398;-72
2022/10/27 11:36:40;;;;;;;16.58;5.80;;;17.80;99.90;;;;;;5058427;28;20036;-72
2022/10/27 11:39:10;;;;;;;16.98;6.30;;;17.90;99.90;;;;;;5071481;28;20043;-71
2022/10/27 11:41:50;;;;;;;17.83;5.90;;;17.90;99.90;;;;;;5062382;28;20495;-71
2022/10/27 11:44:37;;;;;;;32.30;6.55;;;18.00;99.90;;;;;;5058153;28;20434;-71
2022/10/27 11:47:16;;;;;;;22.02;6.28;;;18.00;99.90;;;;;;5064446;28;20508;-72
2022/10/27 11:50:02;;;;;;;15.10;5.82;;;17.90;99.90;;;;;;5052995;28;20086;-71
2022/10/27 11:52:41;;;;;;;22.77;6.53;;;18.00;99.90;;;;;;5049444;28;20276;-71
2022/10/27 11:55:11;;;;;;;17.52;5.80;;;18.00;99.90;;;;;;5089707;28;20043;-71
2022/10/27 11:57:45;;;;;;;20.17;5.78;;;18.00;99.90;;;;;;5084668;28;20040;-71
2022/10/27 12:00:26;;;;;;;18.17;5.25;;;18.00;99.90;;;;;;5070918;28;20052;-72
2022/10/27 12:03:25;;;;;;;20.30;5.72;;;18.00;99.90;;;;;;5070016;28;20040;-71
2022/10/27 12:06:12;;;;;;;28.10;5.90;;;17.90;99.90;;;;;;5065333;28;20048;-71
2022/10/27 12:08:44;;;;;;;18.42;5.70;;;17.90;99.90;;;;;;5045008;28;20043;-71
2022/10/27 12:11:30;;;;;;;23.80;6.07;;;18.00;99.90;;;;;;5072176;28;20048;-71
2022/10/27 12:14:23;;;;;;;20.60;5.80;;;18.00;99.90;;;;;;5064716;28;20032;-71
2022/10/27 12:17:12;;;;;;;17.10;6.47;;;18.00;99.90;;;;;;5036088;28;20086;-71
2022/10/27 12:19:44;;;;;;;23.48;6.43;;;17.90;99.90;;;;;;5068088;28;20444;-71
2022/10/27 12:22:26;;;;;;;19.83;6.30;;;17.90;99.90;;;;;;5063871;28;20036;-71
2022/10/27 12:25:06;;;;;;;22.77;6.78;;;17.80;99.90;;;;;;5059834;28;20044;-71
2022/10/27 12:27:31;;;;;;;17.40;6.57;;;17.90;99.90;;;;;;5036366;28;20044;-71
2022/10/27 12:30:17;;;;;;;21.33;6.43;;;17.90;99.90;;;;;;5062802;28;20041;-71
2022/10/27 12:33:01;;;;;;;26.23;6.68;;;17.80;99.90;;;;;;5054313;28;20115;-71
2022/10/27 12:35:43;;;;;;;22.52;6.60;;;17.90;99.90;;;;;;5062365;28;20040;-71
2022/10/27 12:38:20;;;;;;;16.90;5.85;;;17.90;99.90;;;;;;5066205;28;20048;-71
2022/10/27 12:41:07;;;;;;;21.00;6.05;;;18.00;99.90;;;;;;5066746;28;20128;-71
2022/10/27 12:43:39;;;;;;;17.27;5.97;;;18.10;99.90;;;;;;5062790;28;20132;-71
2022/10/27 12:46:29;;;;;;;31.90;6.72;;;18.20;99.90;;;;;;5052720;28;20044;-71
2022/10/27 12:49:01;;;;;;;26.40;6.22;;;18.20;99.90;;;;;;5070407;28;20055;-71
2022/10/27 12:52:00;;;;;;;20.63;6.20;;;18.30;99.90;;;;;;5069038;28;20044;-71
2022/10/27 12:54:50;;;;;;;17.63;5.93;;;18.50;99.90;;;;;;5069979;28;20456;-71
2022/10/27 12:57:40;;;;;;;19.38;5.63;;;18.70;99.90;;;;;;5061958;28;20135;-71
2022/10/27 13:00:16;;;;;;;15.68;5.93;;;18.80;99.90;;;;;;5080222;28;20044;-71
2022/10/27 13:03:23;;;;;;;15.45;5.43;;;19.00;99.90;;;;;;5081702;28;20051;-71
2022/10/27 13:06:33;;;;;;;15.15;5.32;;;19.20;99.90;;;;;;5056721;28;20051;-72
2022/10/27 13:09:15;;;;;;;17.83;5.82;;;19.20;99.90;;;;;;5015115;28;20079;-71
2022/10/27 13:11:52;;;;;;;17.63;4.65;;;19.30;99.90;;;;;;5060341;28;20302;-72
2022/10/27 13:14:42;;;;;;;17.25;5.00;;;19.30;99.90;;;;;;5059746;28;20044;-70
2022/10/27 13:17:22;;;;;;;20.75;5.22;;;19.20;99.90;;;;;;5049601;28;20040;-71
2022/10/27 13:20:38;;;;;;;15.02;4.53;;;19.20;99.90;;;;;;5062386;28;20047;-71
2022/10/27 13:23:30;;;;;;;18.17;4.75;;;19.20;99.90;;;;;;5053348;28;20044;-71
2022/10/27 13:26:07;;;;;;;15.77;4.57;;;19.20;99.90;;;;;;5065621;28;20032;-70
2022/10/27 13:28:42;;;;;;;16.40;4.50;;;19.00;99.90;;;;;;5066197;28;20491;-71
2022/10/27 13:31:28;;;;;;;23.80;4.95;;;19.00;99.90;;;;;;5070852;28;20067;-70
2022/10/27 13:34:09;;;;;;;13.27;4.53;;;18.90;99.90;;;;;;5068702;28;20079;-71
2022/10/27 13:36:36;;;;;;;11.93;4.53;;;18.70;99.90;;;;;;5053686;28;20040;-71
2022/10/27 13:39:14;;;;;;;17.75;4.70;;;18.60;99.90;;;;;;5076524;28;20480;-71
2022/10/27 13:42:06;;;;;;;16.92;4.40;;;18.50;99.90;;;;;;5054534;28;20044;-72
2022/10/27 13:44:42;;;;;;;29.52;6.10;;;18.40;99.90;;;;;;5077066;28;20058;-72
2022/10/27 13:47:13;;;;;;;31.23;6.28;;;18.30;99.90;;;;;;5069468;28;20055;-73
2022/10/27 13:49:41;;;;;;;19.67;5.45;;;18.20;99.90;;;;;;5084266;28;20071;-72
2022/10/27 13:52:16;;;;;;;25.23;5.50;;;18.10;99.90;;;;;;5074706;28;20047;-72
2022/10/27 13:54:52;;;;;;;29.40;7.82;;;18.00;99.90;;;;;;5069452;28;20052;-72
2022/10/27 13:58:02;;;;;;;16.08;6.68;;;17.90;99.90;;;;;;5055208;28;20049;-72
2022/10/27 14:00:52;;;;;;;17.30;6.32;;;17.90;99.90;;;;;;5041084;28;20052;-72
2022/10/27 14:03:36;;;;;;;19.08;6.43;;;17.80;99.90;;;;;;5057530;28;20372;-73
2022/10/27 14:06:15;;;;;;;27.55;6.50;;;17.70;99.90;;;;;;5063210;28;20070;-73
2022/10/27 14:08:49;;;;;;;16.85;6.13;;;17.60;99.90;;;;;;5090178;28;20143;-73
2022/10/27 14:11:24;;;;;;;14.95;6.32;;;17.60;99.90;;;;;;5084380;28;20041;-73
2022/10/27 14:14:06;;;;;;;19.15;5.88;;;17.60;99.90;;;;;;5067096;28;20066;-73
2022/10/27 14:16:35;;;;;;;16.42;6.20;;;17.50;99.90;;;;;;5086346;28;20043;-72
2022/10/27 14:19:10;;;;;;;14.45;5.97;;;17.40;99.90;;;;;;5055328;28;20467;-72
2022/10/27 14:21:46;;;;;;;22.42;5.82;;;17.40;99.90;;;;;;5054081;28;20186;-72
2022/10/27 14:24:37;;;;;;;15.23;5.32;;;17.40;99.90;;;;;;5061926;28;20044;-72
2022/10/27 14:27:04;;;;;;;18.08;6.40;;;17.30;99.90;;;;;;5063703;28;20040;-72
2022/10/27 14:29:31;;;;;;;18.92;6.40;;;17.40;99.90;;;;;;5065217;28;20387;-71
2022/10/27 14:32:25;;;;;;;16.60;6.22;;;17.40;99.90;;;;;;5053500;28;20372;-72
2022/10/27 14:34:51;;;;;;;20.23;7.22;;;17.40;99.90;;;;;;5065182;28;20043;-71
2022/10/27 14:37:44;;;;;;;17.67;6.60;;;17.30;99.90;;;;;;5089365;28;20048;-72
2022/10/27 14:40:17;;;;;;;12.77;6.57;;;17.40;99.90;;;;;;5065861;28;20105;-72
2022/10/27 14:42:44;;;;;;;21.40;6.72;;;17.50;99.90;;;;;;5062424;28;20461;-71
2022/10/27 14:45:20;;;;;;;17.17;6.38;;;17.40;99.90;;;;;;5073406;28;20047;-72
2022/10/27 14:48:05;;;;;;;17.30;6.85;;;17.50;99.90;;;;;;5049391;28;20036;-72
2022/10/27 14:50:40;;;;;;;14.98;5.85;;;17.50;99.90;;;;;;5056987;28;20036;-72
2022/10/27 14:53:24;;;;;;;22.15;6.10;;;17.50;99.90;;;;;;5067422;28;20037;-72
2022/10/27 14:56:16;;;;;;;19.65;6.35;;;17.50;99.90;;;;;;5069428;28;20028;-72
2022/10/27 14:58:55;;;;;;;14.68;6.00;;;17.40;99.90;;;;;;5072725;28;20605;-72
2022/10/27 15:01:32;;;;;;;12.57;5.32;;;17.40;99.90;;;;;;5073505;28;20052;-72
2022/10/27 15:04:03;;;;;;;19.90;5.80;;;17.40;99.90;;;;;;5088358;28;20094;-72
2022/10/27 15:06:31;;;;;;;17.05;5.88;;;17.40;99.90;;;;;;5075537;28;20383;-72
2022/10/27 15:08:57;;;;;;;14.85;5.40;;;17.40;99.90;;;;;;5056323;28;20032;-72
2022/10/27 15:11:25;;;;;;;16.38;5.60;;;17.50;99.90;;;;;;5061332;28;20046;-72
2022/10/27 15:13:52;;;;;;;20.83;6.05;;;17.50;99.90;;;;;;5055153;28;20036;-72
2022/10/27 15:16:24;;;;;;;14.80;5.38;;;17.50;99.90;;;;;;5078807;28;20101;-72
2022/10/27 15:18:50;;;;;;;;;;;17.60;99.90;;;;;;5061734;28;20063;-72
2022/10/27 15:21:20;;;;;;;16.23;5.57;;;17.60;99.90;;;;;;5071149;28;19916;-72
2022/10/27 15:23:48;;;;;;;19.70;6.35;;;17.60;99.90;;;;;;5070794;28;20051;-72
2022/10/27 15:26:24;;;;;;;15.73;5.78;;;17.60;99.90;;;;;;5082756;28;20048;-72
2022/10/27 15:28:54;;;;;;;23.67;6.20;;;17.60;99.90;;;;;;5054377;28;20044;-72
2022/10/27 15:31:20;;;;;;;20.45;6.07;;;17.70;99.90;;;;;;5070064;28;20047;-71
2022/10/27 15:33:47;;;;;;;23.25;6.38;;;17.60;99.90;;;;;;5062921;28;20499;-71
2022/10/27 15:36:16;;;;;;;24.13;6.55;;;17.70;99.90;;;;;;5053266;28;20043;-72
2022/10/27 15:38:43;;;;;;;23.55;6.53;;;17.60;99.90;;;;;;5065019;28;20681;-73
2022/10/27 15:41:18;;;;;;;18.52;6.47;;;17.50;99.90;;;;;;5051944;28;20040;-72
2022/10/27 15:43:45;;;;;;;23.40;6.28;;;17.40;99.90;;;;;;5065106;28;20040;-71
2022/10/27 15:46:30;;;;;;;19.52;6.28;;;17.30;99.90;;;;;;5062816;28;20063;-72
2022/10/27 15:49:02;;;;;;;17.90;6.07;;;17.30;99.90;;;;;;5079956;28;20046;-71
2022/10/27 15:51:47;;;;;;;18.17;6.00;;;17.20;99.90;;;;;;5058793;28;20036;-71
2022/10/27 15:54:17;;;;;;;20.75;5.97;;;17.10;99.90;;;;;;5061542;28;20082;-72
2022/10/27 15:56:45;;;;;;;17.48;5.93;;;17.10;99.90;;;;;;5037520;28;20032;-72
2022/10/27 15:59:21;;;;;;;20.50;6.55;;;17.10;99.90;;;;;;5058872;28;20036;-71
2022/10/27 16:01:48;;;;;;;21.85;7.05;;;17.00;99.90;;;;;;5085196;28;20109;-71
2022/10/27 16:04:29;;;;;;;21.40;7.10;;;16.90;99.90;;;;;;5073725;28;20052;-72
2022/10/27 16:07:13;;;;;;;21.10;6.55;;;16.80;99.90;;;;;;5049405;28;20074;-71
2022/10/27 16:09:49;;;;;;;17.45;6.78;;;16.70;99.90;;;;;;5053082;28;20062;-72
2022/10/27 16:12:37;;;;;;;22.52;7.38;;;16.70;99.90;;;;;;5068875;28;20043;-71
2022/10/27 16:15:15;;;;;;;17.63;7.40;;;16.70;99.90;;;;;;5075486;28;20032;-72
2022/10/27 16:17:47;;;;;;;25.90;7.28;;;16.60;99.90;;;;;;5070428;28;20101;-72
2022/10/27 16:20:17;;;;;;;21.15;7.45;;;16.60;99.90;;;;;;5079700;28;20173;-71
2022/10/27 16:22:43;;;;;;;21.33;6.97;;;16.40;99.90;;;;;;5063163;28;20127;-71
2022/10/27 16:25:17;;;;;;;25.23;7.43;;;16.40;99.90;;;;;;5068030;28;20062;-71
2022/10/27 16:27:42;;;;;;;21.92;7.07;;;16.30;99.90;;;;;;5060706;28;20085;-71
2022/10/27 16:30:15;;;;;;;20.40;7.00;;;16.20;99.90;;;;;;5057708;28;20040;-71
2022/10/27 16:32:42;;;;;;;17.60;6.88;;;16.20;99.90;;;;;;5070004;28;20029;-71
2022/10/27 16:35:13;;;;;;;20.23;7.65;;;16.10;99.90;;;;;;5063768;28;20073;-71
2022/10/27 16:37:38;;;;;;;28.58;7.50;;;16.00;99.90;;;;;;5070261;28;20462;-72
2022/10/27 16:40:04;;;;;;;26.17;8.07;;;16.00;99.90;;;;;;5065709;28;20051;-72
2022/10/27 16:42:31;;;;;;;20.75;6.95;;;16.00;99.90;;;;;;5056389;28;20033;-71
2022/10/27 16:44:56;;;;;;;24.48;7.78;;;15.90;99.90;;;;;;5059292;28;20068;-71
2022/10/27 16:47:22;;;;;;;20.70;7.65;;;15.80;99.90;;;;;;5060215;28;20075;-72
2022/10/27 16:49:48;;;;;;;22.92;8.63;;;15.90;99.90;;;;;;5059059;28;20036;-71
2022/10/27 16:52:14;;;;;;;28.27;8.77;;;15.80;99.90;;;;;;5056310;28;20039;-70
2022/10/27 16:54:40;;;;;;;29.67;9.65;;;15.70;99.90;;;;;;5061528;28;20028;-71
2022/10/27 16:57:07;;;;;;;28.33;9.68;;;15.60;99.90;;;;;;5053755;28;20032;-70
2022/10/27 16:59:33;;;;;;;33.58;13.25;;;15.70;99.90;;;;;;5057992;28;20028;-70
2022/10/27 17:01:59;;;;;;;38.90;14.10;;;15.70;99.90;;;;;;5040518;28;20094;-71
2022/10/27 17:04:25;;;;;;;25.88;10.90;;;15.60;99.90;;;;;;5066851;28;20070;-71
2022/10/27 17:06:51;;;;;;;31.15;9.57;;;15.60;99.90;;;;;;5070438;28;20032;-71
2022/10/27 17:09:17;;;;;;;25.80;9.52;;;15.70;99.90;;;;;;5049812;28;20442;-71
2022/10/27 17:11:44;;;;;;;25.60;9.32;;;15.60;99.90;;;;;;5058674;28;20036;-71
2022/10/27 17:14:10;;;;;;;28.75;10.20;;;15.60;99.90;;;;;;5054347;28;20436;-71
2022/10/27 17:16:35;;;;;;;26.65;10.93;;;15.50;99.90;;;;;;5070796;28;20035;-70
2022/10/27 17:19:01;;;;;;;23.60;9.88;;;15.60;99.90;;;;;;5051944;28;20032;-71
2022/10/27 17:21:27;;;;;;;24.73;10.25;;;15.50;99.90;;;;;;5072756;28;20457;-71
2022/10/27 17:23:53;;;;;;;33.25;10.82;;;15.50;99.90;;;;;;5073733;28;20124;-70
2022/10/27 17:26:19;;;;;;;22.90;10.70;;;15.50;99.90;;;;;;5073430;28;20060;-70
2022/10/27 17:28:47;;;;;;;29.55;11.13;;;15.50;99.90;;;;;;5070043;28;20123;-71
2022/10/27 17:31:13;;;;;;;27.05;11.43;;;15.50;99.90;;;;;;5071008;28;20043;-71
2022/10/27 17:33:39;;;;;;;29.23;10.98;;;15.50;99.90;;;;;;5073807;28;20032;-71
2022/10/27 17:36:09;;;;;;;28.25;11.73;;;15.40;99.90;;;;;;5088010;28;20047;-71
2022/10/27 17:38:35;;;;;;;27.73;11.25;;;15.50;99.90;;;;;;5075391;28;20028;-71
2022/10/27 17:41:02;;;;;;;31.92;11.98;;;15.40;99.90;;;;;;5085546;28;20046;-70
2022/10/27 17:43:29;;;;;;;29.25;11.63;;;15.40;99.90;;;;;;5055387;28;20154;-71
2022/10/27 17:46:05;;;;;;;39.65;11.80;;;15.40;99.90;;;;;;5083152;28;20097;-71
2022/10/27 17:48:33;;;;;;;29.98;11.13;;;15.40;99.90;;;;;;5071262;28;20048;-71
2022/10/27 17:51:03;;;;;;;29.15;11.43;;;15.40;99.90;;;;;;5059767;28;20044;-71
2022/10/27 17:53:29;;;;;;;31.98;11.73;;;15.40;99.90;;;;;;5082781;28;20122;-70
2022/10/27 17:56:00;;;;;;;30.73;12.13;;;15.30;99.90;;;;;;5079434;28;20051;-71
2022/10/27 17:58:29;;;;;;;33.13;11.55;;;15.30;99.90;;;;;;5091464;28;20249;-71
2022/10/27 18:01:01;;;;;;;38.58;13.05;;;15.30;99.90;;;;;;5090524;28;20394;-70
2022/10/27 18:03:27;;;;;;;35.30;13.45;;;15.20;99.90;;;;;;5067317;28;20036;-70
2022/10/27 18:05:58;;;;;;;36.83;13.88;;;15.20;99.90;;;;;;5061578;28;20372;-70
2022/10/27 18:08:24;;;;;;;34.00;13.57;;;15.20;99.90;;;;;;5069907;28;20108;-70
2022/10/27 18:10:50;;;;;;;39.72;13.30;;;15.20;99.90;;;;;;5077346;28;20044;-70
2022/10/27 18:13:16;;;;;;;39.70;13.48;;;15.20;99.90;;;;;;5068269;28;20040;-70
2022/10/27 18:15:41;;;;;;;34.38;13.15;;;15.20;99.90;;;;;;5063867;28;20072;-70
2022/10/27 18:18:07;;;;;;;39.50;14.35;;;15.20;99.90;;;;;;5067900;28;20543;-70
2022/10/27 18:20:34;;;;;;;43.20;14.50;;;15.20;99.90;;;;;;5067941;28;20439;-70
2022/10/27 18:22:59;;;;;;;41.45;15.38;;;15.20;99.90;;;;;;5062727;28;20065;-70
2022/10/27 18:25:25;;;;;;;45.85;15.63;;;15.10;99.90;;;;;;5069180;28;20043;-70
2022/10/27 18:27:51;;;;;;;40.90;15.60;;;15.20;99.90;;;;;;5071976;28;20503;-70
2022/10/27 18:30:16;;;;;;;38.72;14.80;;;15.20;99.90;;;;;;5060066;28;20043;-70
2022/10/27 18:32:42;;;;;;;39.55;15.80;;;15.20;99.90;;;;;;5070345;28;20230;-70
2022/10/27 18:35:07;;;;;;;41.95;16.67;;;15.10;99.90;;;;;;5079822;28;20110;-69
2022/10/27 18:37:33;;;;;;;48.45;16.50;;;15.20;99.90;;;;;;5089706;28;20043;-70
2022/10/27 18:39:59;;;;;;;44.28;15.80;;;15.20;99.90;;;;;;5071912;28;20047;-70
2022/10/27 18:42:24;;;;;;;50.95;16.70;;;15.20;99.90;;;;;;5055803;28;20032;-70
2022/10/27 18:44:50;;;;;;;48.20;16.50;;;15.20;99.90;;;;;;5068877;28;20029;-70
2022/10/27 18:47:15;;;;;;;46.17;16.02;;;15.30;99.90;;;;;;5072617;28;20478;-70
2022/10/27 18:49:41;;;;;;;42.20;16.95;;;15.30;99.90;;;;;;5091520;28;20200;-70
2022/10/27 18:52:07;;;;;;;44.88;17.45;;;15.30;99.90;;;;;;5054533;28;20047;-70
2022/10/27 18:54:32;;;;;;;52.88;17.60;;;15.30;99.90;;;;;;5068618;28;20376;-70
2022/10/27 18:56:58;;;;;;;50.97;18.67;;;15.30;99.90;;;;;;5070571;28;20055;-71
2022/10/27 18:59:24;;;;;;;46.67;18.42;;;15.20;99.90;;;;;;5070590;28;20039;-70
2022/10/27 19:01:51;;;;;;;65.68;18.98;;;15.20;99.90;;;;;;5058561;28;20048;-70
2022/10/27 19:04:17;;;;;;;53.15;18.73;;;15.30;99.90;;;;;;5067998;28;20121;-70
2022/10/27 19:06:44;;;;;;;54.58;18.65;;;15.20;99.90;;;;;;5086938;28;20063;-71
2022/10/27 19:09:10;;;;;;;53.08;19.58;;;15.20;99.90;;;;;;5070438;28;20118;-71
2022/10/27 19:11:36;;;;;;;61.42;20.42;;;15.20;99.90;;;;;;5069463;28;20119;-71
2022/10/27 19:14:02;;;;;;;58.80;19.60;;;15.20;99.90;;;;;;5078324;28;20036;-71
2022/10/27 19:16:29;;;;;;;51.83;19.23;;;15.20;99.90;;;;;;5072959;28;20040;-70
2022/10/27 19:18:55;;;;;;;57.30;19.77;;;15.20;99.90;;;;;;5056293;28;20036;-70
2022/10/27 19:21:21;;;;;;;59.60;20.05;;;15.30;99.90;;;;;;5070775;28;20059;-71
2022/10/27 19:23:52;;;;;;;61.28;19.50;;;15.20;99.90;;;;;;5082074;28;20035;-71
2022/10/27 19:26:21;;;;;;;51.08;19.38;;;15.20;99.90;;;;;;5079807;28;20495;-70
2022/10/27 19:28:47;;;;;;;63.00;20.60;;;15.20;99.90;;;;;;5053921;28;20045;-70
2022/10/27 19:31:15;;;;;;;68.85;19.98;;;15.10;99.90;;;;;;5078007;28;20044;-70
2022/10/27 19:33:41;;;;;;;61.47;20.65;;;15.10;99.90;;;;;;5055472;28;20066;-70
2022/10/27 19:36:09;;;;;;;57.22;20.00;;;15.10;99.90;;;;;;5071954;28;20079;-71
2022/10/27 19:38:36;;;;;;;56.63;19.40;;;15.10;99.90;;;;;;5090485;28;20089;-71
2022/10/27 19:41:08;;;;;;;62.97;21.08;;;15.10;99.90;;;;;;5083547;28;20036;-71
2022/10/27 19:43:34;;;;;;;61.17;20.50;;;15.00;99.90;;;;;;5054781;28;20044;-71
2022/10/27 19:45:59;;;;;;;60.42;20.85;;;15.00;99.90;;;;;;5070697;28;20364;-71
2022/10/27 19:48:25;;;;;;;57.22;21.55;;;15.00;99.90;;;;;;5080485;28;20039;-70
2022/10/27 19:50:50;;;;;;;51.70;20.92;;;15.00;99.90;;;;;;5072199;28;20051;-71
2022/10/27 19:53:16;;;;;;;59.72;20.70;;;15.00;99.90;;;;;;5089598;28;20130;-71
2022/10/27 19:55:42;;;;;;;49.15;20.20;;;15.00;99.90;;;;;;5069911;28;20093;-71
2022/10/27 19:58:07;;;;;;;58.20;21.05;;;15.00;99.90;;;;;;5089210;28;20034;-71
2022/10/27 20:00:33;;;;;;;63.15;22.00;;;15.10;99.90;;;;;;5052121;28;20039;-70
2022/10/27 20:02:59;;;;;;;56.95;22.25;;;15.00;99.90;;;;;;5071655;28;20044;-71
2022/10/27 20:05:24;;;;;;;69.97;22.33;;;15.10;99.90;;;;;;5076940;28;20041;-71
2022/10/27 20:07:51;;;;;;;63.33;21.88;;;15.10;99.90;;;;;;5058851;28;20439;-70